Main page
METAR-TAF:

METAR-TAF

Airports :

Helsinki Airport

Helsinki, Finland

latitude: 60-19N, longitude: 024-58E, elevation: 51 m

Current weather observation

The report was made 40 minutes ago, at 15:50 UTC
Wind 16 kt from the West/Northwest
Temperature 19°C
Humidity 40%
Pressure 1011 hPa
Visibility 10 km or more
no clouds below 1500 m and no cumulonimbus

METAR: EFHK 211550Z 30016KT CAVOK 19/05 Q1011 NOSIG

Time: 19:30 (16:30 UTC)

Forecast

The report was made 2 hours and 1 minutes ago, at 14:29 UTC
Forecast valid from 21 at 15 UTC to 22 at 15 UTC
Wind 15 kt from the West/Northwest
Visibility 10 km or more
no clouds below 1500 m and no cumulonimbus
Becoming
from 21 at 20 UTC to 21 at 22 UTC
Wind 5 kt from the Northwest
Becoming
from 22 at 10 UTC to 22 at 12 UTC
Wind 10 kt from the South/Southwest

TAF: EFHK 211429Z 2115/2215 30015KT CAVOK BECMG 2120/2122 31005KT BECMG 2210/2212 20010KT

Weather observations and forecasts of more than 4000 airports (METAR and TAF reports).

The available stations are represented by yellow and red dots on the map.

Hover mouse over dot to see the name of the station.

Then click to see weather observations and forecasts.

To change the map : click on the green buttons with a black cross to zoom in, on the green button with a dash to zoom out, or on the green arrows for adjacent maps.


METAR-TAF: